sensor_id;sensor_type;location;lat;lon;timestamp;P1;durP1;ratioP1;P2;durP2;ratioP2
20814;SDS011;10568;48.176;16.316;2023-10-31T00:01:51;3.33;;;1.40;;
20814;SDS011;10568;48.176;16.316;2023-10-31T00:04:17;2.93;;;1.53;;
20814;SDS011;10568;48.176;16.316;2023-10-31T00:06:43;3.80;;;1.67;;
20814;SDS011;10568;48.176;16.316;2023-10-31T00:09:08;2.07;;;1.37;;
20814;SDS011;10568;48.176;16.316;2023-10-31T00:11:35;2.13;;;1.27;;
20814;SDS011;10568;48.176;16.316;2023-10-31T00:14:01;4.40;;;1.83;;
20814;SDS011;10568;48.176;16.316;2023-10-31T00:16:27;3.17;;;1.50;;
20814;SDS011;10568;48.176;16.316;2023-10-31T00:18:53;3.90;;;1.80;;
20814;SDS011;10568;48.176;16.316;2023-10-31T00:21:19;3.63;;;1.60;;
20814;SDS011;10568;48.176;16.316;2023-10-31T00:23:45;3.57;;;1.40;;
20814;SDS011;10568;48.176;16.316;2023-10-31T00:26:12;2.50;;;1.63;;
20814;SDS011;10568;48.176;16.316;2023-10-31T00:28:38;3.30;;;1.60;;
20814;SDS011;10568;48.176;16.316;2023-10-31T00:31:03;2.47;;;1.53;;
20814;SDS011;10568;48.176;16.316;2023-10-31T00:33:32;4.87;;;1.60;;
20814;SDS011;10568;48.176;16.316;2023-10-31T00:35:57;2.20;;;1.30;;
20814;SDS011;10568;48.176;16.316;2023-10-31T00:38:23;2.03;;;1.40;;
20814;SDS011;10568;48.176;16.316;2023-10-31T00:40:49;3.00;;;1.70;;
20814;SDS011;10568;48.176;16.316;2023-10-31T00:43:15;3.83;;;1.40;;
20814;SDS011;10568;48.176;16.316;2023-10-31T00:45:40;2.73;;;1.50;;
20814;SDS011;10568;48.176;16.316;2023-10-31T00:48:06;2.50;;;1.40;;
20814;SDS011;10568;48.176;16.316;2023-10-31T00:50:32;5.83;;;2.10;;
20814;SDS011;10568;48.176;16.316;2023-10-31T00:52:58;2.50;;;1.30;;
20814;SDS011;10568;48.176;16.316;2023-10-31T00:55:24;2.33;;;1.37;;
20814;SDS011;10568;48.176;16.316;2023-10-31T00:57:50;2.37;;;1.20;;
20814;SDS011;10568;48.176;16.316;2023-10-31T01:00:16;2.87;;;1.70;;
20814;SDS011;10568;48.176;16.316;2023-10-31T01:02:42;4.03;;;1.50;;
20814;SDS011;10568;48.176;16.316;2023-10-31T01:05:08;2.50;;;1.57;;
20814;SDS011;10568;48.176;16.316;2023-10-31T01:07:34;2.60;;;1.40;;
20814;SDS011;10568;48.176;16.316;2023-10-31T01:10:00;2.67;;;1.60;;
20814;SDS011;10568;48.176;16.316;2023-10-31T01:12:26;2.90;;;1.70;;
20814;SDS011;10568;48.176;16.316;2023-10-31T01:14:53;2.83;;;1.70;;
20814;SDS011;10568;48.176;16.316;2023-10-31T01:17:21;4.23;;;1.60;;
20814;SDS011;10568;48.176;16.316;2023-10-31T01:19:46;2.87;;;1.70;;
20814;SDS011;10568;48.176;16.316;2023-10-31T01:22:12;3.10;;;1.67;;
20814;SDS011;10568;48.176;16.316;2023-10-31T01:24:38;4.33;;;1.47;;
20814;SDS011;10568;48.176;16.316;2023-10-31T01:27:04;3.27;;;2.10;;
20814;SDS011;10568;48.176;16.316;2023-10-31T01:29:29;3.90;;;1.60;;
20814;SDS011;10568;48.176;16.316;2023-10-31T01:31:55;6.33;;;1.50;;
20814;SDS011;10568;48.176;16.316;2023-10-31T01:34:21;1.90;;;1.30;;
20814;SDS011;10568;48.176;16.316;2023-10-31T01:36:47;3.77;;;1.50;;
20814;SDS011;10568;48.176;16.316;2023-10-31T01:39:13;3.77;;;1.80;;
20814;SDS011;10568;48.176;16.316;2023-10-31T01:41:42;4.30;;;1.47;;
20814;SDS011;10568;48.176;16.316;2023-10-31T01:44:09;1.90;;;1.30;;
20814;SDS011;10568;48.176;16.316;2023-10-31T01:46:35;2.77;;;1.50;;
20814;SDS011;10568;48.176;16.316;2023-10-31T01:49:01;2.50;;;1.30;;
20814;SDS011;10568;48.176;16.316;2023-10-31T01:51:27;2.50;;;1.53;;
20814;SDS011;10568;48.176;16.316;2023-10-31T01:53:54;3.30;;;1.47;;
20814;SDS011;10568;48.176;16.316;2023-10-31T01:56:21;2.77;;;1.50;;
20814;SDS011;10568;48.176;16.316;2023-10-31T01:58:48;3.03;;;1.57;;
20814;SDS011;10568;48.176;16.316;2023-10-31T02:01:14;5.00;;;1.93;;
20814;SDS011;10568;48.176;16.316;2023-10-31T02:03:40;3.13;;;1.60;;
20814;SDS011;10568;48.176;16.316;2023-10-31T02:06:06;4.00;;;1.50;;
20814;SDS011;10568;48.176;16.316;2023-10-31T02:08:32;5.20;;;1.73;;
20814;SDS011;10568;48.176;16.316;2023-10-31T02:10:58;4.57;;;1.40;;
20814;SDS011;10568;48.176;16.316;2023-10-31T02:13:24;3.27;;;1.60;;
20814;SDS011;10568;48.176;16.316;2023-10-31T02:15:50;3.83;;;1.47;;
20814;SDS011;10568;48.176;16.316;2023-10-31T02:18:16;3.67;;;1.80;;
20814;SDS011;10568;48.176;16.316;2023-10-31T02:20:42;4.37;;;1.90;;
20814;SDS011;10568;48.176;16.316;2023-10-31T02:23:08;10.77;;;1.93;;
20814;SDS011;10568;48.176;16.316;2023-10-31T02:25:34;3.63;;;1.73;;
20814;SDS011;10568;48.176;16.316;2023-10-31T02:28:00;3.23;;;1.77;;
20814;SDS011;10568;48.176;16.316;2023-10-31T02:30:26;3.40;;;1.67;;
20814;SDS011;10568;48.176;16.316;2023-10-31T02:32:52;2.70;;;1.60;;
20814;SDS011;10568;48.176;16.316;2023-10-31T02:35:18;4.07;;;1.40;;
20814;SDS011;10568;48.176;16.316;2023-10-31T02:37:44;3.07;;;1.60;;
20814;SDS011;10568;48.176;16.316;2023-10-31T02:40:11;4.73;;;1.77;;
20814;SDS011;10568;48.176;16.316;2023-10-31T02:42:37;3.37;;;1.50;;
20814;SDS011;10568;48.176;16.316;2023-10-31T02:45:03;2.50;;;1.60;;
20814;SDS011;10568;48.176;16.316;2023-10-31T02:47:29;2.03;;;1.30;;
20814;SDS011;10568;48.176;16.316;2023-10-31T02:49:55;3.43;;;1.70;;
20814;SDS011;10568;48.176;16.316;2023-10-31T02:52:21;3.87;;;1.40;;
20814;SDS011;10568;48.176;16.316;2023-10-31T02:54:47;2.63;;;1.77;;
20814;SDS011;10568;48.176;16.316;2023-10-31T02:57:12;3.63;;;1.70;;
20814;SDS011;10568;48.176;16.316;2023-10-31T02:59:38;1.87;;;1.50;;
20814;SDS011;10568;48.176;16.316;2023-10-31T03:02:04;3.23;;;1.60;;
20814;SDS011;10568;48.176;16.316;2023-10-31T03:04:30;3.57;;;1.47;;
20814;SDS011;10568;48.176;16.316;2023-10-31T03:06:56;2.67;;;1.60;;
20814;SDS011;10568;48.176;16.316;2023-10-31T03:09:21;3.63;;;1.40;;
20814;SDS011;10568;48.176;16.316;2023-10-31T03:11:47;2.90;;;1.47;;
20814;SDS011;10568;48.176;16.316;2023-10-31T03:14:13;5.87;;;2.03;;
20814;SDS011;10568;48.176;16.316;2023-10-31T03:16:39;3.13;;;1.47;;
20814;SDS011;10568;48.176;16.316;2023-10-31T03:19:05;4.83;;;1.40;;
20814;SDS011;10568;48.176;16.316;2023-10-31T03:21:31;3.03;;;1.50;;
20814;SDS011;10568;48.176;16.316;2023-10-31T03:23:56;1.60;;;1.20;;
20814;SDS011;10568;48.176;16.316;2023-10-31T03:26:22;1.93;;;1.30;;
20814;SDS011;10568;48.176;16.316;2023-10-31T03:28:48;1.50;;;1.10;;
20814;SDS011;10568;48.176;16.316;2023-10-31T03:31:15;3.20;;;0.80;;
20814;SDS011;10568;48.176;16.316;2023-10-31T03:33:41;2.27;;;1.10;;
20814;SDS011;10568;48.176;16.316;2023-10-31T03:36:07;0.80;;;0.70;;
20814;SDS011;10568;48.176;16.316;2023-10-31T03:38:36;0.83;;;0.50;;
20814;SDS011;10568;48.176;16.316;2023-10-31T03:41:03;1.10;;;0.60;;
20814;SDS011;10568;48.176;16.316;2023-10-31T03:43:29;0.50;;;0.50;;
20814;SDS011;10568;48.176;16.316;2023-10-31T03:45:55;1.10;;;0.60;;
20814;SDS011;10568;48.176;16.316;2023-10-31T03:48:21;0.87;;;0.40;;
20814;SDS011;10568;48.176;16.316;2023-10-31T03:50:47;0.40;;;0.30;;
20814;SDS011;10568;48.176;16.316;2023-10-31T03:53:14;0.30;;;0.30;;
20814;SDS011;10568;48.176;16.316;2023-10-31T03:55:40;0.60;;;0.40;;
20814;SDS011;10568;48.176;16.316;2023-10-31T03:58:06;0.40;;;0.27;;
20814;SDS011;10568;48.176;16.316;2023-10-31T04:00:32;0.87;;;0.67;;
20814;SDS011;10568;48.176;16.316;2023-10-31T04:02:58;0.23;;;0.23;;
20814;SDS011;10568;48.176;16.316;2023-10-31T04:05:24;0.30;;;0.30;;
20814;SDS011;10568;48.176;16.316;2023-10-31T04:07:50;1.67;;;0.30;;
20814;SDS011;10568;48.176;16.316;2023-10-31T04:10:17;0.43;;;0.37;;
20814;SDS011;10568;48.176;16.316;2023-10-31T04:12:44;0.37;;;0.20;;
20814;SDS011;10568;48.176;16.316;2023-10-31T04:15:10;0.53;;;0.37;;
20814;SDS011;10568;48.176;16.316;2023-10-31T04:17:36;0.73;;;0.23;;
20814;SDS011;10568;48.176;16.316;2023-10-31T04:20:02;0.23;;;0.23;;
20814;SDS011;10568;48.176;16.316;2023-10-31T04:22:29;0.23;;;0.23;;
20814;SDS011;10568;48.176;16.316;2023-10-31T04:24:55;0.67;;;0.30;;
20814;SDS011;10568;48.176;16.316;2023-10-31T04:27:21;0.30;;;0.30;;
20814;SDS011;10568;48.176;16.316;2023-10-31T04:29:47;0.47;;;0.37;;
20814;SDS011;10568;48.176;16.316;2023-10-31T04:32:13;0.53;;;0.50;;
20814;SDS011;10568;48.176;16.316;2023-10-31T04:34:39;0.30;;;0.30;;
20814;SDS011;10568;48.176;16.316;2023-10-31T04:37:05;0.50;;;0.50;;
20814;SDS011;10568;48.176;16.316;2023-10-31T04:39:31;0.30;;;0.30;;
20814;SDS011;10568;48.176;16.316;2023-10-31T04:41:57;4.03;;;0.50;;
20814;SDS011;10568;48.176;16.316;2023-10-31T04:44:23;0.63;;;0.50;;
20814;SDS011;10568;48.176;16.316;2023-10-31T04:46:48;1.00;;;0.50;;
20814;SDS011;10568;48.176;16.316;2023-10-31T04:49:14;0.80;;;0.50;;
20814;SDS011;10568;48.176;16.316;2023-10-31T04:51:40;0.47;;;0.47;;
20814;SDS011;10568;48.176;16.316;2023-10-31T04:54:06;2.43;;;0.40;;
20814;SDS011;10568;48.176;16.316;2023-10-31T04:56:32;0.70;;;0.47;;
20814;SDS011;10568;48.176;16.316;2023-10-31T04:58:58;1.20;;;0.30;;
20814;SDS011;10568;48.176;16.316;2023-10-31T05:01:24;0.30;;;0.30;;
20814;SDS011;10568;48.176;16.316;2023-10-31T05:03:50;0.30;;;0.30;;
20814;SDS011;10568;48.176;16.316;2023-10-31T05:06:20;0.70;;;0.50;;
20814;SDS011;10568;48.176;16.316;2023-10-31T05:08:47;0.30;;;0.30;;
20814;SDS011;10568;48.176;16.316;2023-10-31T05:11:16;0.53;;;0.30;;
20814;SDS011;10568;48.176;16.316;2023-10-31T05:13:43;0.33;;;0.30;;
20814;SDS011;10568;48.176;16.316;2023-10-31T05:16:10;0.50;;;0.30;;
20814;SDS011;10568;48.176;16.316;2023-10-31T05:21:59;0.20;;;0.20;;
20814;SDS011;10568;48.176;16.316;2023-10-31T05:24:25;0.47;;;0.30;;
20814;SDS011;10568;48.176;16.316;2023-10-31T05:26:51;0.10;;;0.10;;
20814;SDS011;10568;48.176;16.316;2023-10-31T05:29:17;0.20;;;0.20;;
20814;SDS011;10568;48.176;16.316;2023-10-31T05:31:43;0.30;;;0.30;;
20814;SDS011;10568;48.176;16.316;2023-10-31T05:34:10;0.30;;;0.20;;
20814;SDS011;10568;48.176;16.316;2023-10-31T05:36:36;0.40;;;0.30;;
20814;SDS011;10568;48.176;16.316;2023-10-31T05:39:01;0.20;;;0.20;;
20814;SDS011;10568;48.176;16.316;2023-10-31T05:41:27;0.70;;;0.30;;
20814;SDS011;10568;48.176;16.316;2023-10-31T05:43:53;0.50;;;0.30;;
20814;SDS011;10568;48.176;16.316;2023-10-31T05:46:19;2.10;;;0.30;;
20814;SDS011;10568;48.176;16.316;2023-10-31T05:48:46;0.40;;;0.40;;
20814;SDS011;10568;48.176;16.316;2023-10-31T05:51:15;0.20;;;0.20;;
20814;SDS011;10568;48.176;16.316;2023-10-31T05:53:43;0.57;;;0.30;;
20814;SDS011;10568;48.176;16.316;2023-10-31T05:56:13;0.20;;;0.20;;
20814;SDS011;10568;48.176;16.316;2023-10-31T05:58:41;0.20;;;0.20;;
20814;SDS011;10568;48.176;16.316;2023-10-31T06:01:07;0.23;;;0.20;;
20814;SDS011;10568;48.176;16.316;2023-10-31T06:03:33;0.40;;;0.20;;
20814;SDS011;10568;48.176;16.316;2023-10-31T06:05:59;0.50;;;0.30;;
20814;SDS011;10568;48.176;16.316;2023-10-31T06:08:25;0.20;;;0.20;;
20814;SDS011;10568;48.176;16.316;2023-10-31T06:10:54;0.33;;;0.30;;
20814;SDS011;10568;48.176;16.316;2023-10-31T06:13:20;0.50;;;0.40;;
20814;SDS011;10568;48.176;16.316;2023-10-31T06:15:47;0.40;;;0.20;;
20814;SDS011;10568;48.176;16.316;2023-10-31T06:18:13;0.30;;;0.30;;
20814;SDS011;10568;48.176;16.316;2023-10-31T06:20:39;0.30;;;0.20;;
20814;SDS011;10568;48.176;16.316;2023-10-31T06:23:05;0.20;;;0.20;;
20814;SDS011;10568;48.176;16.316;2023-10-31T06:25:31;0.30;;;0.20;;
20814;SDS011;10568;48.176;16.316;2023-10-31T06:27:57;0.47;;;0.30;;
20814;SDS011;10568;48.176;16.316;2023-10-31T06:30:22;0.20;;;0.20;;
20814;SDS011;10568;48.176;16.316;2023-10-31T06:32:51;0.10;;;0.10;;
20814;SDS011;10568;48.176;16.316;2023-10-31T06:35:18;0.10;;;0.10;;
20814;SDS011;10568;48.176;16.316;2023-10-31T06:37:44;0.40;;;0.10;;
20814;SDS011;10568;48.176;16.316;2023-10-31T06:40:10;0.20;;;0.20;;
20814;SDS011;10568;48.176;16.316;2023-10-31T06:42:36;0.30;;;0.30;;
20814;SDS011;10568;48.176;16.316;2023-10-31T06:45:02;0.10;;;0.10;;
20814;SDS011;10568;48.176;16.316;2023-10-31T06:47:29;0.43;;;0.20;;
20814;SDS011;10568;48.176;16.316;2023-10-31T06:49:55;0.23;;;0.10;;
20814;SDS011;10568;48.176;16.316;2023-10-31T06:52:21;0.50;;;0.20;;
20814;SDS011;10568;48.176;16.316;2023-10-31T06:54:47;0.57;;;0.13;;
20814;SDS011;10568;48.176;16.316;2023-10-31T06:57:13;0.83;;;0.13;;
20814;SDS011;10568;48.176;16.316;2023-10-31T06:59:40;0.13;;;0.10;;
20814;SDS011;10568;48.176;16.316;2023-10-31T07:02:06;0.50;;;0.30;;
20814;SDS011;10568;48.176;16.316;2023-10-31T07:04:32;0.20;;;0.20;;
20814;SDS011;10568;48.176;16.316;2023-10-31T07:06:58;0.10;;;0.10;;
20814;SDS011;10568;48.176;16.316;2023-10-31T07:09:24;0.20;;;0.17;;
20814;SDS011;10568;48.176;16.316;2023-10-31T07:11:51;0.10;;;0.10;;
20814;SDS011;10568;48.176;16.316;2023-10-31T07:14:17;0.20;;;0.20;;
20814;SDS011;10568;48.176;16.316;2023-10-31T07:16:43;0.20;;;0.20;;
20814;SDS011;10568;48.176;16.316;2023-10-31T07:19:12;0.20;;;0.20;;
20814;SDS011;10568;48.176;16.316;2023-10-31T07:21:38;0.10;;;0.10;;
20814;SDS011;10568;48.176;16.316;2023-10-31T07:24:03;0.10;;;0.10;;
20814;SDS011;10568;48.176;16.316;2023-10-31T07:26:30;0.20;;;0.20;;
20814;SDS011;10568;48.176;16.316;2023-10-31T07:28:56;0.10;;;0.10;;
20814;SDS011;10568;48.176;16.316;2023-10-31T07:31:21;0.30;;;0.20;;
20814;SDS011;10568;48.176;16.316;2023-10-31T07:33:47;0.20;;;0.20;;
20814;SDS011;10568;48.176;16.316;2023-10-31T07:36:13;0.20;;;0.20;;
20814;SDS011;10568;48.176;16.316;2023-10-31T07:38:39;0.10;;;0.10;;
20814;SDS011;10568;48.176;16.316;2023-10-31T07:41:04;0.10;;;0.10;;
20814;SDS011;10568;48.176;16.316;2023-10-31T07:43:30;0.73;;;0.20;;
20814;SDS011;10568;48.176;16.316;2023-10-31T07:45:56;0.20;;;0.20;;
20814;SDS011;10568;48.176;16.316;2023-10-31T07:48:22;0.63;;;0.20;;
20814;SDS011;10568;48.176;16.316;2023-10-31T07:50:47;0.47;;;0.20;;
20814;SDS011;10568;48.176;16.316;2023-10-31T07:53:13;0.20;;;0.20;;
20814;SDS011;10568;48.176;16.316;2023-10-31T07:55:39;0.20;;;0.20;;
20814;SDS011;10568;48.176;16.316;2023-10-31T07:58:05;0.20;;;0.17;;
20814;SDS011;10568;48.176;16.316;2023-10-31T08:00:31;0.20;;;0.20;;
20814;SDS011;10568;48.176;16.316;2023-10-31T08:02:59;0.10;;;0.10;;
20814;SDS011;10568;48.176;16.316;2023-10-31T08:05:25;2.07;;;0.30;;
20814;SDS011;10568;48.176;16.316;2023-10-31T08:07:51;0.17;;;0.17;;
20814;SDS011;10568;48.176;16.316;2023-10-31T08:10:17;0.70;;;0.20;;
20814;SDS011;10568;48.176;16.316;2023-10-31T08:12:43;0.20;;;0.20;;
20814;SDS011;10568;48.176;16.316;2023-10-31T08:15:09;0.10;;;0.10;;
20814;SDS011;10568;48.176;16.316;2023-10-31T08:17:35;0.10;;;0.10;;
20814;SDS011;10568;48.176;16.316;2023-10-31T08:20:01;1.13;;;0.30;;
20814;SDS011;10568;48.176;16.316;2023-10-31T08:22:31;0.20;;;0.20;;
20814;SDS011;10568;48.176;16.316;2023-10-31T08:24:57;0.83;;;0.20;;
20814;SDS011;10568;48.176;16.316;2023-10-31T08:27:22;0.20;;;0.20;;
20814;SDS011;10568;48.176;16.316;2023-10-31T08:29:48;0.10;;;0.10;;
20814;SDS011;10568;48.176;16.316;2023-10-31T08:32:14;0.20;;;0.10;;
20814;SDS011;10568;48.176;16.316;2023-10-31T08:34:41;0.10;;;0.10;;
20814;SDS011;10568;48.176;16.316;2023-10-31T08:37:06;0.20;;;0.20;;
20814;SDS011;10568;48.176;16.316;2023-10-31T08:39:32;0.50;;;0.20;;
20814;SDS011;10568;48.176;16.316;2023-10-31T08:41:58;0.50;;;0.27;;
20814;SDS011;10568;48.176;16.316;2023-10-31T08:44:24;0.60;;;0.17;;
20814;SDS011;10568;48.176;16.316;2023-10-31T08:46:52;0.30;;;0.20;;
20814;SDS011;10568;48.176;16.316;2023-10-31T08:49:17;0.10;;;0.10;;
20814;SDS011;10568;48.176;16.316;2023-10-31T08:51:44;0.27;;;0.20;;
20814;SDS011;10568;48.176;16.316;2023-10-31T08:54:10;0.20;;;0.10;;
20814;SDS011;10568;48.176;16.316;2023-10-31T08:56:36;0.17;;;0.17;;
20814;SDS011;10568;48.176;16.316;2023-10-31T08:59:01;0.30;;;0.20;;
20814;SDS011;10568;48.176;16.316;2023-10-31T09:01:27;0.30;;;0.17;;
20814;SDS011;10568;48.176;16.316;2023-10-31T09:03:56;0.10;;;0.10;;
20814;SDS011;10568;48.176;16.316;2023-10-31T09:06:23;0.10;;;0.10;;
20814;SDS011;10568;48.176;16.316;2023-10-31T09:08:49;0.20;;;0.20;;
20814;SDS011;10568;48.176;16.316;2023-10-31T09:11:15;0.20;;;0.20;;
20814;SDS011;10568;48.176;16.316;2023-10-31T09:13:41;0.23;;;0.23;;
20814;SDS011;10568;48.176;16.316;2023-10-31T09:16:07;0.30;;;0.23;;
20814;SDS011;10568;48.176;16.316;2023-10-31T09:18:33;0.20;;;0.20;;
20814;SDS011;10568;48.176;16.316;2023-10-31T09:20:59;0.20;;;0.20;;
20814;SDS011;10568;48.176;16.316;2023-10-31T09:23:25;0.40;;;0.17;;
20814;SDS011;10568;48.176;16.316;2023-10-31T09:25:51;0.20;;;0.17;;
20814;SDS011;10568;48.176;16.316;2023-10-31T09:28:17;0.10;;;0.10;;
20814;SDS011;10568;48.176;16.316;2023-10-31T09:30:43;0.20;;;0.20;;
20814;SDS011;10568;48.176;16.316;2023-10-31T09:33:09;0.40;;;0.20;;
20814;SDS011;10568;48.176;16.316;2023-10-31T09:35:34;0.20;;;0.20;;
20814;SDS011;10568;48.176;16.316;2023-10-31T09:38:00;0.30;;;0.20;;
20814;SDS011;10568;48.176;16.316;2023-10-31T09:40:26;0.40;;;0.30;;
20814;SDS011;10568;48.176;16.316;2023-10-31T09:42:51;0.73;;;0.30;;
20814;SDS011;10568;48.176;16.316;2023-10-31T09:45:17;0.37;;;0.37;;
20814;SDS011;10568;48.176;16.316;2023-10-31T09:47:43;0.30;;;0.30;;
20814;SDS011;10568;48.176;16.316;2023-10-31T09:50:09;0.37;;;0.30;;
20814;SDS011;10568;48.176;16.316;2023-10-31T09:52:37;0.53;;;0.30;;
20814;SDS011;10568;48.176;16.316;2023-10-31T09:55:03;0.30;;;0.20;;
20814;SDS011;10568;48.176;16.316;2023-10-31T09:57:30;0.47;;;0.30;;
20814;SDS011;10568;48.176;16.316;2023-10-31T09:59:56;0.30;;;0.30;;
20814;SDS011;10568;48.176;16.316;2023-10-31T10:02:22;0.63;;;0.30;;
20814;SDS011;10568;48.176;16.316;2023-10-31T10:04:48;0.93;;;0.40;;
20814;SDS011;10568;48.176;16.316;2023-10-31T10:07:15;0.37;;;0.20;;
20814;SDS011;10568;48.176;16.316;2023-10-31T10:09:42;0.87;;;0.40;;
20814;SDS011;10568;48.176;16.316;2023-10-31T10:12:11;0.63;;;0.40;;
20814;SDS011;10568;48.176;16.316;2023-10-31T10:14:39;0.30;;;0.30;;
20814;SDS011;10568;48.176;16.316;2023-10-31T10:17:15;0.43;;;0.30;;
20814;SDS011;10568;48.176;16.316;2023-10-31T10:19:43;0.90;;;0.53;;
20814;SDS011;10568;48.176;16.316;2023-10-31T10:22:09;0.30;;;0.23;;
20814;SDS011;10568;48.176;16.316;2023-10-31T10:24:35;0.90;;;0.37;;
20814;SDS011;10568;48.176;16.316;2023-10-31T10:27:04;0.40;;;0.30;;
20814;SDS011;10568;48.176;16.316;2023-10-31T10:29:29;0.30;;;0.30;;
20814;SDS011;10568;48.176;16.316;2023-10-31T10:31:55;0.30;;;0.30;;
20814;SDS011;10568;48.176;16.316;2023-10-31T10:34:22;0.43;;;0.40;;
20814;SDS011;10568;48.176;16.316;2023-10-31T10:36:49;0.97;;;0.40;;
20814;SDS011;10568;48.176;16.316;2023-10-31T10:39:19;0.43;;;0.30;;
20814;SDS011;10568;48.176;16.316;2023-10-31T10:41:51;2.73;;;0.47;;
20814;SDS011;10568;48.176;16.316;2023-10-31T10:44:35;0.50;;;0.40;;
20814;SDS011;10568;48.176;16.316;2023-10-31T10:47:03;0.70;;;0.47;;
20814;SDS011;10568;48.176;16.316;2023-10-31T10:49:32;0.90;;;0.30;;
20814;SDS011;10568;48.176;16.316;2023-10-31T10:52:01;0.97;;;0.40;;
20814;SDS011;10568;48.176;16.316;2023-10-31T10:54:54;0.33;;;0.30;;
20814;SDS011;10568;48.176;16.316;2023-10-31T11:00:04;0.93;;;0.37;;
20814;SDS011;10568;48.176;16.316;2023-10-31T11:02:34;2.43;;;0.40;;
20814;SDS011;10568;48.176;16.316;2023-10-31T11:05:08;0.60;;;0.30;;
20814;SDS011;10568;48.176;16.316;2023-10-31T11:07:34;0.57;;;0.33;;
20814;SDS011;10568;48.176;16.316;2023-10-31T11:10:02;0.47;;;0.30;;
20814;SDS011;10568;48.176;16.316;2023-10-31T11:12:30;0.63;;;0.30;;
20814;SDS011;10568;48.176;16.316;2023-10-31T11:14:57;0.97;;;0.40;;
20814;SDS011;10568;48.176;16.316;2023-10-31T11:17:31;0.30;;;0.30;;
20814;SDS011;10568;48.176;16.316;2023-10-31T11:20:00;0.77;;;0.33;;
20814;SDS011;10568;48.176;16.316;2023-10-31T11:22:37;0.40;;;0.40;;
20814;SDS011;10568;48.176;16.316;2023-10-31T11:25:04;0.50;;;0.33;;
20814;SDS011;10568;48.176;16.316;2023-10-31T11:27:33;0.40;;;0.40;;
20814;SDS011;10568;48.176;16.316;2023-10-31T11:30:00;0.57;;;0.40;;
20814;SDS011;10568;48.176;16.316;2023-10-31T11:32:31;0.17;;;0.10;;
20814;SDS011;10568;48.176;16.316;2023-10-31T11:34:58;1.13;;;0.40;;
20814;SDS011;10568;48.176;16.316;2023-10-31T11:37:26;0.50;;;0.30;;
20814;SDS011;10568;48.176;16.316;2023-10-31T11:40:15;0.77;;;0.30;;
20814;SDS011;10568;48.176;16.316;2023-10-31T11:42:49;0.20;;;0.20;;
20814;SDS011;10568;48.176;16.316;2023-10-31T11:45:27;0.80;;;0.20;;
20814;SDS011;10568;48.176;16.316;2023-10-31T11:47:53;2.53;;;0.50;;
20814;SDS011;10568;48.176;16.316;2023-10-31T11:50:20;0.70;;;0.30;;
20814;SDS011;10568;48.176;16.316;2023-10-31T11:52:57;0.60;;;0.40;;
20814;SDS011;10568;48.176;16.316;2023-10-31T11:55:42;0.37;;;0.30;;
20814;SDS011;10568;48.176;16.316;2023-10-31T12:00:49;0.40;;;0.30;;
20814;SDS011;10568;48.176;16.316;2023-10-31T12:03:17;0.37;;;0.30;;
20814;SDS011;10568;48.176;16.316;2023-10-31T12:05:56;0.37;;;0.30;;
20814;SDS011;10568;48.176;16.316;2023-10-31T12:08:30;0.30;;;0.23;;
20814;SDS011;10568;48.176;16.316;2023-10-31T12:11:04;0.40;;;0.40;;
20814;SDS011;10568;48.176;16.316;2023-10-31T12:13:32;0.30;;;0.30;;
20814;SDS011;10568;48.176;16.316;2023-10-31T12:16:00;0.40;;;0.20;;
20814;SDS011;10568;48.176;16.316;2023-10-31T12:18:28;0.63;;;0.30;;
20814;SDS011;10568;48.176;16.316;2023-10-31T12:20:54;0.73;;;0.27;;
20814;SDS011;10568;48.176;16.316;2023-10-31T12:23:21;0.20;;;0.20;;
20814;SDS011;10568;48.176;16.316;2023-10-31T12:25:50;0.30;;;0.20;;
20814;SDS011;10568;48.176;16.316;2023-10-31T12:28:17;0.20;;;0.20;;
20814;SDS011;10568;48.176;16.316;2023-10-31T12:30:44;1.77;;;0.30;;
20814;SDS011;10568;48.176;16.316;2023-10-31T12:33:12;0.30;;;0.30;;
20814;SDS011;10568;48.176;16.316;2023-10-31T12:35:37;0.63;;;0.30;;
20814;SDS011;10568;48.176;16.316;2023-10-31T12:38:04;0.43;;;0.27;;
20814;SDS011;10568;48.176;16.316;2023-10-31T12:40:37;1.47;;;0.50;;
20814;SDS011;10568;48.176;16.316;2023-10-31T12:43:03;0.60;;;0.33;;
20814;SDS011;10568;48.176;16.316;2023-10-31T12:45:29;0.53;;;0.30;;
20814;SDS011;10568;48.176;16.316;2023-10-31T12:48:01;0.43;;;0.30;;
20814;SDS011;10568;48.176;16.316;2023-10-31T12:50:36;1.70;;;0.20;;
20814;SDS011;10568;48.176;16.316;2023-10-31T12:53:04;0.47;;;0.37;;
20814;SDS011;10568;48.176;16.316;2023-10-31T12:55:38;0.40;;;0.30;;
20814;SDS011;10568;48.176;16.316;2023-10-31T12:58:05;0.83;;;0.43;;
20814;SDS011;10568;48.176;16.316;2023-10-31T13:00:32;1.30;;;0.60;;
20814;SDS011;10568;48.176;16.316;2023-10-31T13:03:14;0.37;;;0.20;;
20814;SDS011;10568;48.176;16.316;2023-10-31T13:05:40;0.40;;;0.30;;
20814;SDS011;10568;48.176;16.316;2023-10-31T13:08:10;0.10;;;0.10;;
20814;SDS011;10568;48.176;16.316;2023-10-31T13:10:41;0.97;;;0.30;;
20814;SDS011;10568;48.176;16.316;2023-10-31T13:13:17;0.83;;;0.30;;
20814;SDS011;10568;48.176;16.316;2023-10-31T13:15:43;2.07;;;0.40;;
20814;SDS011;10568;48.176;16.316;2023-10-31T13:18:09;0.30;;;0.20;;
20814;SDS011;10568;48.176;16.316;2023-10-31T13:20:37;0.10;;;0.10;;
20814;SDS011;10568;48.176;16.316;2023-10-31T13:23:02;0.77;;;0.53;;
20814;SDS011;10568;48.176;16.316;2023-10-31T13:25:28;0.80;;;0.30;;
20814;SDS011;10568;48.176;16.316;2023-10-31T13:27:56;0.50;;;0.27;;
20814;SDS011;10568;48.176;16.316;2023-10-31T13:30:22;0.30;;;0.30;;
20814;SDS011;10568;48.176;16.316;2023-10-31T13:32:49;0.37;;;0.30;;
20814;SDS011;10568;48.176;16.316;2023-10-31T13:35:15;0.33;;;0.30;;
20814;SDS011;10568;48.176;16.316;2023-10-31T13:37:40;0.40;;;0.33;;
20814;SDS011;10568;48.176;16.316;2023-10-31T13:40:06;0.60;;;0.33;;
20814;SDS011;10568;48.176;16.316;2023-10-31T13:42:34;0.37;;;0.30;;
20814;SDS011;10568;48.176;16.316;2023-10-31T13:45:00;2.00;;;0.43;;
20814;SDS011;10568;48.176;16.316;2023-10-31T13:47:26;0.37;;;0.37;;
20814;SDS011;10568;48.176;16.316;2023-10-31T13:49:51;0.30;;;0.30;;
20814;SDS011;10568;48.176;16.316;2023-10-31T13:52:17;0.63;;;0.47;;
20814;SDS011;10568;48.176;16.316;2023-10-31T13:54:43;0.93;;;0.30;;
20814;SDS011;10568;48.176;16.316;2023-10-31T13:57:08;0.50;;;0.30;;
20814;SDS011;10568;48.176;16.316;2023-10-31T13:59:34;0.27;;;0.27;;
20814;SDS011;10568;48.176;16.316;2023-10-31T14:02:00;0.40;;;0.30;;
20814;SDS011;10568;48.176;16.316;2023-10-31T14:04:26;0.47;;;0.40;;
20814;SDS011;10568;48.176;16.316;2023-10-31T14:06:53;0.37;;;0.30;;
20814;SDS011;10568;48.176;16.316;2023-10-31T14:09:19;0.50;;;0.40;;
20814;SDS011;10568;48.176;16.316;2023-10-31T14:11:46;0.60;;;0.40;;
20814;SDS011;10568;48.176;16.316;2023-10-31T14:14:11;0.30;;;0.30;;
20814;SDS011;10568;48.176;16.316;2023-10-31T14:16:41;1.13;;;0.47;;
20814;SDS011;10568;48.176;16.316;2023-10-31T14:19:10;0.80;;;0.50;;
20814;SDS011;10568;48.176;16.316;2023-10-31T14:21:36;0.33;;;0.33;;
20814;SDS011;10568;48.176;16.316;2023-10-31T14:24:02;0.70;;;0.40;;
20814;SDS011;10568;48.176;16.316;2023-10-31T14:26:29;0.93;;;0.50;;
20814;SDS011;10568;48.176;16.316;2023-10-31T14:28:58;1.40;;;0.53;;
20814;SDS011;10568;48.176;16.316;2023-10-31T14:31:23;0.53;;;0.30;;
20814;SDS011;10568;48.176;16.316;2023-10-31T14:33:49;0.77;;;0.40;;
20814;SDS011;10568;48.176;16.316;2023-10-31T14:36:15;0.50;;;0.50;;
20814;SDS011;10568;48.176;16.316;2023-10-31T14:38:41;0.40;;;0.20;;
20814;SDS011;10568;48.176;16.316;2023-10-31T14:41:07;0.60;;;0.40;;